createdAt,value
2023-02-13T00:02:59.817Z,102493.63
2023-02-13T00:06:02.453Z,102465.53
2023-02-13T00:09:06.467Z,102484.25
2023-02-13T00:12:10.215Z,102474.75
2023-02-13T00:15:13.247Z,102503.22
2023-02-13T00:18:15.841Z,102481.16
2023-02-13T00:21:18.254Z,102503.78
2023-02-13T00:24:21.002Z,102478.91
2023-02-13T00:27:23.338Z,102494.97
2023-02-13T00:30:25.966Z,102521.78
2023-02-13T00:33:28.283Z,102518.69
2023-02-13T00:36:30.975Z,102495.44
2023-02-13T00:39:33.415Z,102482.53
2023-02-13T00:42:35.997Z,102480.87
2023-02-13T00:45:38.335Z,102482.06
2023-02-13T00:48:41.189Z,102486.31
2023-02-13T00:51:43.624Z,102484.66
2023-02-13T00:54:47.801Z,102517.50
2023-02-13T00:57:50.482Z,102474.84
2023-02-13T01:00:54.681Z,102500.81
2023-02-13T01:03:57.175Z,102491.75
2023-02-13T01:06:59.942Z,102486.75
2023-02-13T01:10:02.262Z,102499.47
2023-02-13T01:13:05.558Z,102459.38
2023-02-13T01:16:08.637Z,102498.88
2023-02-13T01:19:11.278Z,102464.22
2023-02-13T01:22:13.583Z,102484.66
2023-02-13T01:25:16.593Z,102476.00
2023-02-13T01:28:19.105Z,102460.78
2023-02-13T01:31:22.414Z,102446.19
2023-02-13T01:34:25.665Z,102478.59
2023-02-13T01:37:28.288Z,102492.66
2023-02-13T01:40:31.876Z,102461.50
2023-02-13T01:43:56.409Z,102486.75
2023-02-13T01:46:58.744Z,102485.13
2023-02-13T01:50:18.835Z,102478.94
2023-02-13T01:53:33.223Z,102479.31
2023-02-13T01:56:41.400Z,102488.69
2023-02-13T01:59:58.449Z,102448.91
2023-02-13T02:03:09.027Z,102477.81
2023-02-13T02:06:21.626Z,102445.75
2023-02-13T02:09:27.575Z,102483.91
2023-02-13T02:12:50.009Z,102480.59
2023-02-13T02:15:53.183Z,102477.63
2023-02-13T02:18:56.118Z,102447.50
2023-02-13T02:21:58.421Z,102452.88
2023-02-13T02:25:10.441Z,102477.94
2023-02-13T02:28:28.368Z,102480.94
2023-02-13T02:31:52.260Z,102482.34
2023-02-13T02:35:09.829Z,102485.56
2023-02-13T02:38:39.981Z,102470.34
2023-02-13T02:41:58.339Z,102483.69
2023-02-13T02:45:16.714Z,102475.41
2023-02-13T02:49:33.579Z,102471.53
2023-02-13T02:52:39.892Z,102480.00
2023-02-13T02:56:11.411Z,102478.41
2023-02-13T02:59:36.734Z,102485.50
2023-02-13T03:02:57.925Z,102446.41
2023-02-13T03:06:14.084Z,102445.97
2023-02-13T03:09:40.478Z,102437.94
2023-02-13T03:13:11.550Z,102466.41
2023-02-13T03:16:38.835Z,102446.56
2023-02-13T03:20:19.991Z,102465.75
2023-02-13T03:23:47.707Z,102459.97
2023-02-13T03:26:50.787Z,102472.81
2023-02-13T03:30:07.935Z,102475.38
2023-02-13T03:33:10.460Z,102446.25
2023-02-13T03:36:50.573Z,102485.34
2023-02-13T03:40:09.566Z,102473.25
2023-02-13T03:43:17.860Z,102438.38
2023-02-13T03:46:21.407Z,102440.06
2023-02-13T03:49:50.371Z,102462.25
2023-02-13T03:52:52.919Z,102437.78
2023-02-13T03:56:15.468Z,102448.34
2023-02-13T03:59:27.085Z,102438.22
2023-02-13T04:02:36.542Z,102460.91
2023-02-13T04:05:44.978Z,102457.56
2023-02-13T04:08:47.626Z,102453.19
2023-02-13T04:11:54.453Z,102432.66
2023-02-13T04:15:04.309Z,102471.56
2023-02-13T04:18:32.089Z,102478.53
2023-02-13T04:21:35.751Z,102476.41
2023-02-13T04:24:38.244Z,102441.09
2023-02-13T04:27:40.474Z,102465.84
2023-02-13T04:30:43.316Z,102458.13
2023-02-13T04:33:45.717Z,102423.94
2023-02-13T04:36:48.441Z,102430.66
2023-02-13T04:39:50.734Z,102434.44
2023-02-13T04:42:53.382Z,102425.97
2023-02-13T04:45:55.727Z,102421.12
2023-02-13T04:48:58.471Z,102428.72
2023-02-13T04:52:00.758Z,102453.44
2023-02-13T04:55:04.053Z,102454.38
2023-02-13T04:58:06.522Z,102447.28
2023-02-13T05:01:17.044Z,102424.78
2023-02-13T05:04:19.545Z,102440.34
2023-02-13T05:07:22.131Z,102405.25
2023-02-13T05:10:24.495Z,102441.44
2023-02-13T05:13:27.129Z,102445.00
2023-02-13T05:16:29.440Z,102439.81
2023-02-13T05:19:32.566Z,102401.97
2023-02-13T05:22:53.690Z,102411.06
2023-02-13T05:25:56.472Z,102425.63
2023-02-13T05:29:17.735Z,102393.38
2023-02-13T05:32:20.505Z,102423.13
2023-02-13T05:35:23.733Z,102427.78
2023-02-13T05:38:26.406Z,102423.13
2023-02-13T05:41:28.777Z,102423.72
2023-02-13T05:44:33.496Z,102388.69
2023-02-13T05:47:36.357Z,102428.09
2023-02-13T05:50:39.196Z,102441.00
2023-02-13T05:53:41.527Z,102438.97
2023-02-13T05:56:44.308Z,102409.53
2023-02-13T05:59:46.670Z,102405.12
2023-02-13T06:02:49.284Z,102439.41
2023-02-13T06:05:52.969Z,102441.97
2023-02-13T06:08:55.297Z,102455.56
2023-02-13T06:11:57.916Z,102422.41
2023-02-13T06:15:00.258Z,102433.50
2023-02-13T06:18:02.879Z,102485.56
2023-02-13T06:21:06.042Z,102458.81
2023-02-13T06:24:08.957Z,102478.38
2023-02-13T06:27:11.453Z,102473.16
2023-02-13T06:30:15.157Z,102485.09
2023-02-13T06:33:17.488Z,102479.38
2023-02-13T06:36:20.415Z,102489.97
2023-02-13T06:39:22.745Z,102465.47
2023-02-13T06:42:25.478Z,102491.41
2023-02-13T06:45:27.765Z,102492.84
2023-02-13T06:48:30.333Z,102460.09
2023-02-13T06:51:32.758Z,102484.84
2023-02-13T06:54:46.893Z,102480.00
2023-02-13T06:57:50.204Z,102466.34
2023-02-13T07:00:53.250Z,102451.53
2023-02-13T07:03:55.634Z,102480.38
2023-02-13T07:06:58.236Z,102476.97
2023-02-13T07:10:00.998Z,102487.91
2023-02-13T07:13:06.080Z,102493.81
2023-02-13T07:19:11.701Z,102468.97
2023-02-13T07:22:14.421Z,102493.16
2023-02-13T07:25:17.392Z,102497.31
2023-02-13T07:28:19.791Z,102499.72
2023-02-13T07:31:22.555Z,102495.03
2023-02-13T07:34:25.032Z,102469.25
2023-02-13T07:37:29.422Z,102445.47
2023-02-13T07:40:31.749Z,102473.41
2023-02-13T07:43:34.556Z,102499.97
2023-02-13T07:46:37.528Z,102500.84
2023-02-13T07:49:40.284Z,102505.78
2023-02-13T07:52:42.616Z,102507.63
2023-02-13T07:55:45.210Z,102514.44
2023-02-13T07:58:47.493Z,102513.03
2023-02-13T08:01:50.238Z,102511.09
2023-02-13T08:04:52.983Z,102526.53
2023-02-13T08:07:55.406Z,102489.28
2023-02-13T08:11:22.355Z,102492.69
2023-02-13T08:14:26.945Z,102500.91
2023-02-13T08:17:29.600Z,102504.56
2023-02-13T08:20:31.968Z,102475.91
2023-02-13T08:23:34.782Z,102503.25
2023-02-13T08:26:37.291Z,102480.03
2023-02-13T08:29:40.312Z,102509.16
2023-02-13T08:32:53.758Z,102473.28
2023-02-13T08:35:57.436Z,102460.00
2023-02-13T08:39:15.769Z,102475.59
2023-02-13T08:42:25.316Z,102498.22
2023-02-13T08:45:28.507Z,102439.84
2023-02-13T08:48:31.635Z,102498.66
2023-02-13T08:51:45.085Z,102492.03
2023-02-13T08:54:52.117Z,102498.03
2023-02-13T08:57:54.575Z,102477.78
2023-02-13T09:01:00.124Z,102497.87
2023-02-13T09:04:02.659Z,102470.53
2023-02-13T09:07:05.326Z,102483.16
2023-02-13T09:10:08.651Z,102495.31
2023-02-13T09:13:16.304Z,102489.69
2023-02-13T09:16:31.488Z,102496.50
2023-02-13T09:19:35.925Z,102495.69
2023-02-13T09:22:38.337Z,102484.63
2023-02-13T09:25:46.200Z,102497.69
2023-02-13T09:28:53.452Z,102490.25
2023-02-13T09:31:56.247Z,102505.47
2023-02-13T09:34:58.745Z,102486.38
2023-02-13T09:38:01.594Z,102507.53
2023-02-13T09:41:10.162Z,102508.44
2023-02-13T09:44:36.381Z,102478.19
2023-02-13T09:47:44.131Z,102485.13
2023-02-13T09:50:46.855Z,102492.84
2023-02-13T09:53:56.996Z,102485.41
2023-02-13T09:57:28.875Z,102484.75
2023-02-13T10:00:57.469Z,102489.38
2023-02-13T10:04:26.157Z,102464.44
2023-02-13T10:07:44.178Z,102491.25
2023-02-13T10:11:04.199Z,102486.34
2023-02-13T10:14:36.340Z,102472.34
2023-02-13T10:17:45.205Z,102457.00
2023-02-13T10:21:13.837Z,102458.03
2023-02-13T10:24:29.867Z,102466.94
2023-02-13T10:27:37.460Z,102452.06
2023-02-13T10:30:57.059Z,102458.81
2023-02-13T10:34:06.704Z,102425.97
2023-02-13T10:37:19.499Z,102451.84
2023-02-13T10:40:28.758Z,102444.59
2023-02-13T10:43:40.716Z,102441.16
2023-02-13T10:47:13.397Z,102437.66
2023-02-13T10:50:15.981Z,102437.44
2023-02-13T10:53:28.719Z,102433.50
2023-02-13T10:56:57.016Z,102422.91
2023-02-13T11:00:36.607Z,102418.00
2023-02-13T11:03:39.657Z,102413.19
2023-02-13T11:06:47.105Z,102407.34
2023-02-13T11:09:53.105Z,102414.09
2023-02-13T11:12:55.660Z,102343.00
2023-02-13T11:16:05.203Z,102394.75
2023-02-13T11:19:23.352Z,102401.06
2023-02-13T11:22:31.721Z,102386.56
2023-02-13T11:25:34.253Z,102301.75
2023-02-13T11:28:46.668Z,102382.87
2023-02-13T11:32:21.198Z,102369.66
2023-02-13T11:35:33.609Z,102370.44
2023-02-13T11:38:36.628Z,102367.94
2023-02-13T11:41:49.973Z,102365.44
2023-02-13T11:44:58.648Z,102353.78
2023-02-13T11:48:01.366Z,102330.25
2023-02-13T11:51:04.515Z,102331.47
2023-02-13T11:54:37.569Z,102345.84
2023-02-13T11:57:39.940Z,102326.59
2023-02-13T12:00:43.487Z,102340.59
2023-02-13T12:03:57.631Z,102346.13
2023-02-13T12:07:12.286Z,102340.38
2023-02-13T12:10:23.780Z,102308.66
2023-02-13T12:13:39.073Z,102333.22
2023-02-13T12:16:50.643Z,102311.78
2023-02-13T12:19:55.642Z,102312.63
2023-02-13T12:23:24.369Z,102335.81
2023-02-13T12:26:38.584Z,102324.28
2023-02-13T12:29:53.468Z,102302.53
2023-02-13T12:33:20.147Z,102312.38
2023-02-13T12:37:01.162Z,102320.53
2023-02-13T12:40:20.969Z,102307.09
2023-02-13T12:43:45.147Z,102271.81
2023-02-13T12:47:15.882Z,102294.41
2023-02-13T12:51:00.579Z,102267.31
2023-02-13T12:54:24.582Z,102271.00
2023-02-13T12:57:47.987Z,102284.56
2023-02-13T13:01:03.559Z,102277.59
2023-02-13T13:04:06.133Z,102260.34
2023-02-13T13:07:56.559Z,102257.56
2023-02-13T13:11:28.048Z,102249.47
2023-02-13T13:14:55.097Z,102257.75
2023-02-13T13:18:04.313Z,102258.62
2023-02-13T13:21:28.318Z,102257.94
2023-02-13T13:24:34.062Z,102264.53
2023-02-13T13:27:44.350Z,102257.47
2023-02-13T13:30:48.326Z,102250.19
2023-02-13T13:33:50.687Z,102258.28
2023-02-13T13:37:07.961Z,102237.34
2023-02-13T13:40:25.236Z,102234.72
2023-02-13T13:44:34.864Z,102261.19
2023-02-13T13:47:50.732Z,102251.97
2023-02-13T13:50:54.195Z,102228.47
2023-02-13T13:54:17.972Z,102241.69
2023-02-13T13:57:25.763Z,102244.72
2023-02-13T14:00:30.856Z,102241.59
2023-02-13T14:03:38.243Z,102235.69
2023-02-13T14:06:43.583Z,102242.12
2023-02-13T14:09:49.296Z,102240.94
2023-02-13T14:12:57.440Z,102230.88
2023-02-13T14:16:13.598Z,102246.47
2023-02-13T14:19:46.523Z,102245.66
2023-02-13T14:22:49.246Z,102227.88
2023-02-13T14:26:11.266Z,102200.50
2023-02-13T14:29:33.532Z,102250.50
2023-02-13T14:32:39.317Z,102248.38
2023-02-13T14:35:42.193Z,102234.84
2023-02-13T14:38:44.549Z,102253.09
2023-02-13T14:41:56.131Z,102255.38
2023-02-13T14:45:02.488Z,102256.53
2023-02-13T14:48:11.740Z,102230.25
2023-02-13T14:51:38.833Z,102241.28
2023-02-13T14:54:55.849Z,102254.50
2023-02-13T14:58:06.502Z,102253.16
2023-02-13T15:01:35.699Z,102251.84
2023-02-13T15:04:48.694Z,102260.91
2023-02-13T15:07:59.193Z,102240.34
2023-02-13T15:11:01.775Z,102215.06
2023-02-13T15:14:17.467Z,102249.69
2023-02-13T15:17:26.544Z,102249.69
2023-02-13T15:20:34.078Z,102252.97
2023-02-13T15:23:36.499Z,102268.34
2023-02-13T15:26:39.454Z,102265.59
2023-02-13T15:29:58.860Z,102266.69
2023-02-13T15:33:07.042Z,102269.44
2023-02-13T15:36:24.422Z,102234.84
2023-02-13T15:39:33.162Z,102261.19
2023-02-13T15:42:39.475Z,102246.09
2023-02-13T15:45:44.098Z,102215.03
2023-02-13T15:48:47.814Z,102226.56
2023-02-13T15:51:55.261Z,102248.53
2023-02-13T15:55:01.379Z,102257.88
2023-02-13T15:58:05.769Z,102215.53
2023-02-13T16:01:11.964Z,102256.44
2023-02-13T16:04:17.956Z,102223.72
2023-02-13T16:07:20.610Z,102253.13
2023-02-13T16:10:31.559Z,102231.41
2023-02-13T16:13:34.591Z,102246.75
2023-02-13T16:17:12.839Z,102247.84
2023-02-13T16:20:22.576Z,102242.38
2023-02-13T16:23:25.312Z,102251.69
2023-02-13T16:26:27.938Z,102260.47
2023-02-13T16:29:30.897Z,102233.22
2023-02-13T16:32:38.202Z,102227.72
2023-02-13T16:36:09.987Z,102226.31
2023-02-13T16:39:20.093Z,102233.47
2023-02-13T16:42:22.834Z,102242.25
2023-02-13T16:45:25.370Z,102216.09
2023-02-13T16:48:28.289Z,102237.25
2023-02-13T16:51:30.601Z,102243.25
2023-02-13T16:54:38.201Z,102239.66
2023-02-13T16:57:41.985Z,102244.84
2023-02-13T17:00:49.930Z,102229.41
2023-02-13T17:03:54.049Z,102247.00
2023-02-13T17:06:56.856Z,102213.97
2023-02-13T17:10:17.432Z,102237.63
2023-02-13T17:13:21.731Z,102196.47
2023-02-13T17:16:24.427Z,102223.41
2023-02-13T17:19:30.067Z,102217.94
2023-02-13T17:22:40.761Z,102222.31
2023-02-13T17:25:50.349Z,102189.34
2023-02-13T17:28:54.177Z,102208.31
2023-02-13T17:31:59.843Z,102214.09
2023-02-13T17:35:06.626Z,102214.66
2023-02-13T17:38:11.169Z,102213.84
2023-02-13T17:41:16.029Z,102211.91
2023-02-13T17:44:20.246Z,102207.53
2023-02-13T17:47:24.502Z,102197.66
2023-02-13T17:50:29.422Z,102209.19
2023-02-13T17:53:32.091Z,102176.19
2023-02-13T17:56:34.693Z,102162.25
2023-02-13T17:59:37.232Z,102151.84
2023-02-13T18:02:42.548Z,102172.69
2023-02-13T18:05:48.542Z,102157.53
2023-02-13T18:08:51.256Z,102181.69
2023-02-13T18:12:04.889Z,102181.41
2023-02-13T18:15:08.333Z,102144.28
2023-02-13T18:18:12.425Z,102142.63
2023-02-13T18:21:14.723Z,102138.78
2023-02-13T18:24:17.447Z,102168.44
2023-02-13T18:27:19.928Z,102162.66
2023-02-13T18:30:23.058Z,102170.31
2023-02-13T18:33:25.563Z,102155.78
2023-02-13T18:36:28.250Z,102138.97
2023-02-13T18:39:32.043Z,102152.47
2023-02-13T18:42:36.087Z,102162.81
2023-02-13T18:45:38.798Z,102157.88
2023-02-13T18:48:41.500Z,102135.31
2023-02-13T18:51:44.523Z,102153.47
2023-02-13T18:54:47.152Z,102112.28
2023-02-13T18:57:52.883Z,102124.59
2023-02-13T19:00:57.289Z,102149.28
2023-02-13T19:04:02.387Z,102124.28
2023-02-13T19:07:05.138Z,102146.28
2023-02-13T19:10:07.953Z,102112.19
2023-02-13T19:13:10.646Z,102135.28
2023-02-13T19:16:17.836Z,102140.69
2023-02-13T19:19:20.451Z,102112.41
2023-02-13T19:22:22.860Z,102143.97
2023-02-13T19:25:25.496Z,102123.31
2023-02-13T19:28:27.800Z,102116.44
2023-02-13T19:31:32.071Z,102153.50
2023-02-13T19:34:34.700Z,102144.97
2023-02-13T19:37:43.872Z,102138.69
2023-02-13T19:40:46.742Z,102144.41
2023-02-13T19:43:53.721Z,102130.72
2023-02-13T19:46:57.028Z,102115.91
2023-02-13T19:49:59.674Z,102144.97
2023-02-13T19:53:04.264Z,102114.25
2023-02-13T19:56:08.289Z,102094.19
2023-02-13T19:59:13.299Z,102108.47
2023-02-13T20:02:17.238Z,102129.63
2023-02-13T20:05:19.999Z,102096.59
2023-02-13T20:08:22.314Z,102130.12
2023-02-13T20:11:25.227Z,102102.06
2023-02-13T20:14:27.532Z,102083.41
2023-02-13T20:17:30.439Z,102084.00
2023-02-13T20:20:32.786Z,102088.91
2023-02-13T20:23:35.664Z,102088.91
2023-02-13T20:26:39.592Z,102113.94
2023-02-13T20:29:42.765Z,102116.94
2023-02-13T20:32:45.122Z,102106.25
2023-02-13T20:35:47.794Z,102099.38
2023-02-13T20:38:53.285Z,102095.38
2023-02-13T20:41:59.000Z,102122.28
2023-02-13T20:45:01.753Z,102119.50
2023-02-13T20:48:04.856Z,102082.69
2023-02-13T20:51:09.723Z,102106.84
2023-02-13T20:54:12.478Z,102096.69
2023-02-13T20:57:15.760Z,102076.00
2023-02-13T21:00:18.623Z,102093.63
2023-02-13T21:03:20.923Z,102106.44
2023-02-13T21:06:32.007Z,102085.81
2023-02-13T21:09:34.570Z,102101.78
2023-02-13T21:12:37.190Z,102079.78
2023-02-13T21:15:39.664Z,102075.41
2023-02-13T21:18:43.476Z,102104.72
2023-02-13T21:21:45.952Z,102107.66
2023-02-13T21:24:50.141Z,102083.72
2023-02-13T21:27:52.506Z,102111.47
2023-02-13T21:30:55.146Z,102077.44
2023-02-13T21:33:59.728Z,102075.81
2023-02-13T21:37:02.615Z,102099.94
2023-02-13T21:40:05.878Z,102084.75
2023-02-13T21:43:08.711Z,102099.88
2023-02-13T21:46:20.244Z,102087.25
2023-02-13T21:49:25.763Z,102112.72
2023-02-13T21:52:28.162Z,102122.81
2023-02-13T21:55:32.545Z,102098.31
2023-02-13T21:58:35.810Z,102123.31
2023-02-13T22:01:38.345Z,102125.88
2023-02-13T22:04:42.209Z,102099.66
2023-02-13T22:08:03.128Z,102135.91
2023-02-13T22:11:05.827Z,102141.94
2023-02-13T22:14:12.979Z,102133.69
2023-02-13T22:17:15.816Z,102107.75
2023-02-13T22:20:18.883Z,102110.47
2023-02-13T22:23:21.507Z,102103.34
2023-02-13T22:26:25.691Z,102087.19
2023-02-13T22:29:28.365Z,102086.28
2023-02-13T22:32:31.608Z,102094.50
2023-02-13T22:35:40.796Z,102119.78
2023-02-13T22:38:43.159Z,102112.66
2023-02-13T22:41:48.586Z,102087.31
2023-02-13T22:44:50.949Z,102101.25
2023-02-13T22:47:53.934Z,102102.41
2023-02-13T22:50:56.346Z,102117.44
2023-02-13T22:53:59.621Z,102083.63
2023-02-13T22:57:01.986Z,102086.09
2023-02-13T23:00:11.450Z,102089.72
2023-02-13T23:03:15.199Z,102100.44
2023-02-13T23:06:18.342Z,102105.31
2023-02-13T23:09:20.684Z,102109.09
2023-02-13T23:12:45.512Z,102095.88
2023-02-13T23:15:50.276Z,102104.63
2023-02-13T23:18:55.043Z,102109.59
2023-02-13T23:21:58.588Z,102089.69
2023-02-13T23:25:02.775Z,102086.97
2023-02-13T23:28:06.062Z,102089.06
2023-02-13T23:31:09.341Z,102105.13
2023-02-13T23:34:11.882Z,102091.41
2023-02-13T23:37:14.651Z,102085.47
2023-02-13T23:40:17.596Z,102060.19
2023-02-13T23:43:20.264Z,102056.38
2023-02-13T23:46:22.775Z,102067.94
2023-02-13T23:49:25.565Z,102045.62
2023-02-13T23:52:28.449Z,102064.81
2023-02-13T23:55:31.055Z,102072.75
2023-02-13T23:58:33.626Z,102043.63
